sensor_id;sensor_type;location;lat;lon;timestamp;temperature;humidity
19252;DHT22;9760;50.944;5.304;2023-07-31T00:00:14;16.80;99.90
19252;DHT22;9760;50.944;5.304;2023-07-31T00:02:40;16.90;99.90
19252;DHT22;9760;50.944;5.304;2023-07-31T00:05:08;16.80;99.90
19252;DHT22;9760;50.944;5.304;2023-07-31T00:07:33;16.80;99.90
19252;DHT22;9760;50.944;5.304;2023-07-31T00:09:59;16.80;99.90
19252;DHT22;9760;50.944;5.304;2023-07-31T00:12:24;16.80;99.90
19252;DHT22;9760;50.944;5.304;2023-07-31T00:14:50;16.80;99.90
19252;DHT22;9760;50.944;5.304;2023-07-31T00:17:17;16.80;99.90
19252;DHT22;9760;50.944;5.304;2023-07-31T00:19:42;16.80;99.90
19252;DHT22;9760;50.944;5.304;2023-07-31T00:22:08;16.80;99.90
19252;DHT22;9760;50.944;5.304;2023-07-31T00:24:33;16.80;99.90
19252;DHT22;9760;50.944;5.304;2023-07-31T00:26:59;16.80;99.90
19252;DHT22;9760;50.944;5.304;2023-07-31T00:29:25;16.80;99.90
19252;DHT22;9760;50.944;5.304;2023-07-31T00:31:50;16.80;99.90
19252;DHT22;9760;50.944;5.304;2023-07-31T00:34:16;16.80;99.90
19252;DHT22;9760;50.944;5.304;2023-07-31T00:36:41;16.70;99.90
19252;DHT22;9760;50.944;5.304;2023-07-31T00:39:07;16.70;99.90
19252;DHT22;9760;50.944;5.304;2023-07-31T00:41:32;16.70;99.90
19252;DHT22;9760;50.944;5.304;2023-07-31T00:43:58;16.80;99.90
19252;DHT22;9760;50.944;5.304;2023-07-31T00:46:24;16.80;99.90
19252;DHT22;9760;50.944;5.304;2023-07-31T00:48:49;16.80;99.90
19252;DHT22;9760;50.944;5.304;2023-07-31T00:51:15;16.80;99.90
19252;DHT22;9760;50.944;5.304;2023-07-31T00:53:41;16.80;99.90
19252;DHT22;9760;50.944;5.304;2023-07-31T00:56:08;16.80;99.90
19252;DHT22;9760;50.944;5.304;2023-07-31T00:58:34;16.80;99.90
19252;DHT22;9760;50.944;5.304;2023-07-31T01:00:59;16.80;99.90
19252;DHT22;9760;50.944;5.304;2023-07-31T01:03:25;16.80;99.90
19252;DHT22;9760;50.944;5.304;2023-07-31T01:11:02;16.90;99.90
19252;DHT22;9760;50.944;5.304;2023-07-31T01:13:31;16.90;99.90
19252;DHT22;9760;50.944;5.304;2023-07-31T01:15:57;16.90;99.90
19252;DHT22;9760;50.944;5.304;2023-07-31T01:18:22;16.90;99.90
19252;DHT22;9760;50.944;5.304;2023-07-31T01:20:54;16.90;99.90
19252;DHT22;9760;50.944;5.304;2023-07-31T01:26:19;17.00;99.90
19252;DHT22;9760;50.944;5.304;2023-07-31T01:28:59;17.00;99.90
19252;DHT22;9760;50.944;5.304;2023-07-31T01:31:26;17.00;99.90
19252;DHT22;9760;50.944;5.304;2023-07-31T01:33:57;17.00;99.90
19252;DHT22;9760;50.944;5.304;2023-07-31T01:36:23;17.10;99.90
19252;DHT22;9760;50.944;5.304;2023-07-31T01:38:49;17.10;99.90
19252;DHT22;9760;50.944;5.304;2023-07-31T01:41:18;17.10;99.90
19252;DHT22;9760;50.944;5.304;2023-07-31T01:43:45;17.10;99.90
19252;DHT22;9760;50.944;5.304;2023-07-31T01:46:11;17.10;99.90
19252;DHT22;9760;50.944;5.304;2023-07-31T01:48:36;17.10;99.90
19252;DHT22;9760;50.944;5.304;2023-07-31T01:51:02;17.20;99.90
19252;DHT22;9760;50.944;5.304;2023-07-31T01:53:30;17.20;99.90
19252;DHT22;9760;50.944;5.304;2023-07-31T01:55:56;17.20;99.90
19252;DHT22;9760;50.944;5.304;2023-07-31T01:58:21;17.20;99.90
19252;DHT22;9760;50.944;5.304;2023-07-31T02:00:47;17.20;99.90
19252;DHT22;9760;50.944;5.304;2023-07-31T02:03:13;17.20;99.90
19252;DHT22;9760;50.944;5.304;2023-07-31T02:05:48;17.20;99.90
19252;DHT22;9760;50.944;5.304;2023-07-31T02:08:14;17.20;99.90
19252;DHT22;9760;50.944;5.304;2023-07-31T02:10:40;17.20;99.90
19252;DHT22;9760;50.944;5.304;2023-07-31T02:13:06;17.20;99.90
19252;DHT22;9760;50.944;5.304;2023-07-31T02:15:32;17.20;99.90
19252;DHT22;9760;50.944;5.304;2023-07-31T02:17:58;17.20;99.90
19252;DHT22;9760;50.944;5.304;2023-07-31T02:20:24;17.20;99.90
19252;DHT22;9760;50.944;5.304;2023-07-31T02:22:49;17.20;99.90
19252;DHT22;9760;50.944;5.304;2023-07-31T02:25:15;17.20;99.90
19252;DHT22;9760;50.944;5.304;2023-07-31T02:27:40;17.20;99.90
19252;DHT22;9760;50.944;5.304;2023-07-31T02:30:07;17.20;99.90
19252;DHT22;9760;50.944;5.304;2023-07-31T02:32:32;17.10;99.90
19252;DHT22;9760;50.944;5.304;2023-07-31T02:34:58;17.10;99.90
19252;DHT22;9760;50.944;5.304;2023-07-31T02:37:24;17.10;99.90
19252;DHT22;9760;50.944;5.304;2023-07-31T02:39:50;17.10;99.90
19252;DHT22;9760;50.944;5.304;2023-07-31T02:42:16;17.10;99.90
19252;DHT22;9760;50.944;5.304;2023-07-31T02:44:41;17.10;99.90
19252;DHT22;9760;50.944;5.304;2023-07-31T02:47:07;17.10;99.90
19252;DHT22;9760;50.944;5.304;2023-07-31T02:49:32;17.10;99.90
19252;DHT22;9760;50.944;5.304;2023-07-31T02:51:58;17.10;99.90
19252;DHT22;9760;50.944;5.304;2023-07-31T02:54:24;17.10;99.90
19252;DHT22;9760;50.944;5.304;2023-07-31T02:56:49;17.10;99.90
19252;DHT22;9760;50.944;5.304;2023-07-31T02:59:15;17.10;99.90
19252;DHT22;9760;50.944;5.304;2023-07-31T03:01:44;17.20;99.90
19252;DHT22;9760;50.944;5.304;2023-07-31T03:04:10;17.20;99.90
19252;DHT22;9760;50.944;5.304;2023-07-31T03:06:36;17.20;99.90
19252;DHT22;9760;50.944;5.304;2023-07-31T03:09:02;17.10;99.90
19252;DHT22;9760;50.944;5.304;2023-07-31T03:11:27;17.20;99.90
19252;DHT22;9760;50.944;5.304;2023-07-31T03:13:53;17.20;99.90
19252;DHT22;9760;50.944;5.304;2023-07-31T03:16:19;17.20;99.90
19252;DHT22;9760;50.944;5.304;2023-07-31T03:18:45;17.20;99.90
19252;DHT22;9760;50.944;5.304;2023-07-31T03:21:10;17.20;99.90
19252;DHT22;9760;50.944;5.304;2023-07-31T03:23:36;17.20;99.90
19252;DHT22;9760;50.944;5.304;2023-07-31T03:26:05;17.20;99.90
19252;DHT22;9760;50.944;5.304;2023-07-31T03:28:31;17.20;99.90
19252;DHT22;9760;50.944;5.304;2023-07-31T03:30:56;17.20;99.90
19252;DHT22;9760;50.944;5.304;2023-07-31T03:33:22;17.20;99.90
19252;DHT22;9760;50.944;5.304;2023-07-31T03:35:48;17.20;99.90
19252;DHT22;9760;50.944;5.304;2023-07-31T03:38:13;17.20;99.90
19252;DHT22;9760;50.944;5.304;2023-07-31T03:40:39;17.20;99.90
19252;DHT22;9760;50.944;5.304;2023-07-31T03:43:05;17.20;99.90
19252;DHT22;9760;50.944;5.304;2023-07-31T03:45:31;17.20;99.90
19252;DHT22;9760;50.944;5.304;2023-07-31T03:47:56;17.20;99.90
19252;DHT22;9760;50.944;5.304;2023-07-31T03:50:22;17.20;99.90
19252;DHT22;9760;50.944;5.304;2023-07-31T03:52:48;17.20;99.90
19252;DHT22;9760;50.944;5.304;2023-07-31T03:55:13;17.20;99.90
19252;DHT22;9760;50.944;5.304;2023-07-31T03:57:39;17.20;99.90
19252;DHT22;9760;50.944;5.304;2023-07-31T04:00:05;17.30;99.90
19252;DHT22;9760;50.944;5.304;2023-07-31T04:02:31;17.30;99.90
19252;DHT22;9760;50.944;5.304;2023-07-31T04:04:57;17.20;99.90
19252;DHT22;9760;50.944;5.304;2023-07-31T04:07:22;17.20;99.90
19252;DHT22;9760;50.944;5.304;2023-07-31T04:09:48;17.30;99.90
19252;DHT22;9760;50.944;5.304;2023-07-31T04:12:13;17.30;99.90
19252;DHT22;9760;50.944;5.304;2023-07-31T04:14:39;17.30;99.90
19252;DHT22;9760;50.944;5.304;2023-07-31T04:17:05;17.30;99.90
19252;DHT22;9760;50.944;5.304;2023-07-31T04:19:31;17.30;99.90
19252;DHT22;9760;50.944;5.304;2023-07-31T04:21:56;17.30;99.90
19252;DHT22;9760;50.944;5.304;2023-07-31T04:24:22;17.30;99.90
19252;DHT22;9760;50.944;5.304;2023-07-31T04:26:53;17.30;99.90
19252;DHT22;9760;50.944;5.304;2023-07-31T04:29:19;17.30;99.90
19252;DHT22;9760;50.944;5.304;2023-07-31T04:31:45;17.30;99.90
19252;DHT22;9760;50.944;5.304;2023-07-31T04:34:10;17.30;99.90
19252;DHT22;9760;50.944;5.304;2023-07-31T04:36:37;17.30;99.90
19252;DHT22;9760;50.944;5.304;2023-07-31T04:39:03;17.30;99.90
19252;DHT22;9760;50.944;5.304;2023-07-31T04:41:28;17.20;99.90
19252;DHT22;9760;50.944;5.304;2023-07-31T04:43:54;17.10;99.90
19252;DHT22;9760;50.944;5.304;2023-07-31T04:46:19;17.00;99.90
19252;DHT22;9760;50.944;5.304;2023-07-31T04:48:45;16.90;99.90
19252;DHT22;9760;50.944;5.304;2023-07-31T04:51:11;16.90;99.90
19252;DHT22;9760;50.944;5.304;2023-07-31T04:53:37;16.90;99.90
19252;DHT22;9760;50.944;5.304;2023-07-31T04:56:03;16.80;99.90
19252;DHT22;9760;50.944;5.304;2023-07-31T04:58:28;16.80;99.90
19252;DHT22;9760;50.944;5.304;2023-07-31T05:00:54;16.80;99.90
19252;DHT22;9760;50.944;5.304;2023-07-31T05:03:20;16.70;99.90
19252;DHT22;9760;50.944;5.304;2023-07-31T05:05:45;16.60;99.90
19252;DHT22;9760;50.944;5.304;2023-07-31T05:08:11;16.60;99.90
19252;DHT22;9760;50.944;5.304;2023-07-31T05:10:37;16.60;99.90
19252;DHT22;9760;50.944;5.304;2023-07-31T05:13:03;16.60;99.90
19252;DHT22;9760;50.944;5.304;2023-07-31T05:15:29;16.60;99.90
19252;DHT22;9760;50.944;5.304;2023-07-31T05:17:54;16.60;99.90
19252;DHT22;9760;50.944;5.304;2023-07-31T05:20:21;16.60;99.90
19252;DHT22;9760;50.944;5.304;2023-07-31T05:22:47;16.60;99.90
19252;DHT22;9760;50.944;5.304;2023-07-31T05:25:12;16.70;99.90
19252;DHT22;9760;50.944;5.304;2023-07-31T05:27:38;16.70;99.90
19252;DHT22;9760;50.944;5.304;2023-07-31T05:30:04;16.70;99.90
19252;DHT22;9760;50.944;5.304;2023-07-31T05:32:31;16.70;99.90
19252;DHT22;9760;50.944;5.304;2023-07-31T05:34:56;16.70;99.90
19252;DHT22;9760;50.944;5.304;2023-07-31T05:37:22;16.80;99.90
19252;DHT22;9760;50.944;5.304;2023-07-31T05:39:48;16.80;99.90
19252;DHT22;9760;50.944;5.304;2023-07-31T05:42:14;16.80;99.90
19252;DHT22;9760;50.944;5.304;2023-07-31T05:44:39;16.80;99.90
19252;DHT22;9760;50.944;5.304;2023-07-31T05:47:05;16.80;99.90
19252;DHT22;9760;50.944;5.304;2023-07-31T05:49:31;16.80;99.90
19252;DHT22;9760;50.944;5.304;2023-07-31T05:51:56;16.80;99.90
19252;DHT22;9760;50.944;5.304;2023-07-31T05:54:22;16.80;99.90
19252;DHT22;9760;50.944;5.304;2023-07-31T05:56:48;16.80;99.90
19252;DHT22;9760;50.944;5.304;2023-07-31T05:59:14;16.80;99.90
19252;DHT22;9760;50.944;5.304;2023-07-31T06:01:39;16.80;99.90
19252;DHT22;9760;50.944;5.304;2023-07-31T06:04:05;16.70;99.90
19252;DHT22;9760;50.944;5.304;2023-07-31T06:06:31;16.70;99.90
19252;DHT22;9760;50.944;5.304;2023-07-31T06:08:57;16.70;99.90
19252;DHT22;9760;50.944;5.304;2023-07-31T06:11:23;16.70;99.90
19252;DHT22;9760;50.944;5.304;2023-07-31T06:13:48;16.60;99.90
19252;DHT22;9760;50.944;5.304;2023-07-31T06:16:15;16.60;99.90
19252;DHT22;9760;50.944;5.304;2023-07-31T06:18:42;16.50;99.90
19252;DHT22;9760;50.944;5.304;2023-07-31T06:21:09;16.50;99.90
19252;DHT22;9760;50.944;5.304;2023-07-31T06:23:34;16.40;99.90
19252;DHT22;9760;50.944;5.304;2023-07-31T06:26:00;16.40;99.90
19252;DHT22;9760;50.944;5.304;2023-07-31T06:28:29;16.40;99.90
19252;DHT22;9760;50.944;5.304;2023-07-31T06:30:56;16.40;99.90
19252;DHT22;9760;50.944;5.304;2023-07-31T06:33:21;16.30;99.90
19252;DHT22;9760;50.944;5.304;2023-07-31T06:35:47;16.30;99.90
19252;DHT22;9760;50.944;5.304;2023-07-31T06:38:13;16.30;99.90
19252;DHT22;9760;50.944;5.304;2023-07-31T06:40:38;16.30;99.90
19252;DHT22;9760;50.944;5.304;2023-07-31T06:43:05;16.30;99.90
19252;DHT22;9760;50.944;5.304;2023-07-31T06:45:36;16.20;99.90
19252;DHT22;9760;50.944;5.304;2023-07-31T06:48:03;16.20;99.90
19252;DHT22;9760;50.944;5.304;2023-07-31T06:50:30;16.30;99.90
19252;DHT22;9760;50.944;5.304;2023-07-31T06:52:56;16.30;99.90
19252;DHT22;9760;50.944;5.304;2023-07-31T06:55:22;16.30;99.90
19252;DHT22;9760;50.944;5.304;2023-07-31T06:57:49;16.30;99.90
19252;DHT22;9760;50.944;5.304;2023-07-31T07:00:16;16.30;99.90
19252;DHT22;9760;50.944;5.304;2023-07-31T07:02:42;16.40;99.90
19252;DHT22;9760;50.944;5.304;2023-07-31T07:05:08;16.40;99.90
19252;DHT22;9760;50.944;5.304;2023-07-31T07:07:34;16.50;99.90
19252;DHT22;9760;50.944;5.304;2023-07-31T07:10:00;16.50;99.90
19252;DHT22;9760;50.944;5.304;2023-07-31T07:12:29;16.50;99.90
19252;DHT22;9760;50.944;5.304;2023-07-31T07:14:55;16.50;99.90
19252;DHT22;9760;50.944;5.304;2023-07-31T07:17:20;16.50;99.90
19252;DHT22;9760;50.944;5.304;2023-07-31T07:19:48;16.60;99.90
19252;DHT22;9760;50.944;5.304;2023-07-31T07:22:14;16.60;99.90
19252;DHT22;9760;50.944;5.304;2023-07-31T07:24:39;16.70;99.90
19252;DHT22;9760;50.944;5.304;2023-07-31T07:27:05;16.80;99.90
19252;DHT22;9760;50.944;5.304;2023-07-31T07:29:31;16.80;99.90
19252;DHT22;9760;50.944;5.304;2023-07-31T07:31:57;16.80;99.90
19252;DHT22;9760;50.944;5.304;2023-07-31T07:34:25;16.80;99.90
19252;DHT22;9760;50.944;5.304;2023-07-31T07:36:50;16.80;99.90
19252;DHT22;9760;50.944;5.304;2023-07-31T07:39:16;16.80;99.90
19252;DHT22;9760;50.944;5.304;2023-07-31T07:41:42;16.70;99.90
19252;DHT22;9760;50.944;5.304;2023-07-31T07:44:08;16.70;99.90
19252;DHT22;9760;50.944;5.304;2023-07-31T07:46:33;16.60;99.90
19252;DHT22;9760;50.944;5.304;2023-07-31T07:48:59;16.60;99.90
19252;DHT22;9760;50.944;5.304;2023-07-31T07:51:25;16.70;99.90
19252;DHT22;9760;50.944;5.304;2023-07-31T07:53:51;16.70;99.90
19252;DHT22;9760;50.944;5.304;2023-07-31T07:56:17;16.80;99.90
19252;DHT22;9760;50.944;5.304;2023-07-31T07:58:42;16.80;99.90
19252;DHT22;9760;50.944;5.304;2023-07-31T08:01:08;16.90;99.90
19252;DHT22;9760;50.944;5.304;2023-07-31T08:03:34;16.80;99.90
19252;DHT22;9760;50.944;5.304;2023-07-31T08:06:00;16.90;99.90
19252;DHT22;9760;50.944;5.304;2023-07-31T08:08:27;17.00;99.90
19252;DHT22;9760;50.944;5.304;2023-07-31T08:10:53;17.00;99.90
19252;DHT22;9760;50.944;5.304;2023-07-31T08:13:19;16.90;99.90
19252;DHT22;9760;50.944;5.304;2023-07-31T08:15:44;16.90;99.90
19252;DHT22;9760;50.944;5.304;2023-07-31T08:18:11;17.00;99.90
19252;DHT22;9760;50.944;5.304;2023-07-31T08:20:37;17.00;99.90
19252;DHT22;9760;50.944;5.304;2023-07-31T08:23:03;17.00;99.90
19252;DHT22;9760;50.944;5.304;2023-07-31T08:25:29;17.10;99.90
19252;DHT22;9760;50.944;5.304;2023-07-31T08:27:55;17.10;99.90
19252;DHT22;9760;50.944;5.304;2023-07-31T08:30:21;17.10;99.90
19252;DHT22;9760;50.944;5.304;2023-07-31T08:32:48;17.10;99.90
19252;DHT22;9760;50.944;5.304;2023-07-31T08:35:14;17.20;99.90
19252;DHT22;9760;50.944;5.304;2023-07-31T08:37:40;17.10;99.90
19252;DHT22;9760;50.944;5.304;2023-07-31T08:40:06;17.20;99.90
19252;DHT22;9760;50.944;5.304;2023-07-31T08:42:32;17.20;99.90
19252;DHT22;9760;50.944;5.304;2023-07-31T08:44:59;17.20;99.90
19252;DHT22;9760;50.944;5.304;2023-07-31T08:47:26;17.20;99.90
19252;DHT22;9760;50.944;5.304;2023-07-31T08:49:53;17.20;99.90
19252;DHT22;9760;50.944;5.304;2023-07-31T08:52:20;17.20;99.90
19252;DHT22;9760;50.944;5.304;2023-07-31T08:54:45;17.10;99.90
19252;DHT22;9760;50.944;5.304;2023-07-31T08:57:12;17.10;99.90
19252;DHT22;9760;50.944;5.304;2023-07-31T08:59:38;17.10;99.90
19252;DHT22;9760;50.944;5.304;2023-07-31T09:02:08;17.10;99.90
19252;DHT22;9760;50.944;5.304;2023-07-31T09:04:34;17.20;99.90
19252;DHT22;9760;50.944;5.304;2023-07-31T09:07:01;17.30;99.90
19252;DHT22;9760;50.944;5.304;2023-07-31T09:09:30;17.40;99.90
19252;DHT22;9760;50.944;5.304;2023-07-31T09:11:57;17.30;99.90
19252;DHT22;9760;50.944;5.304;2023-07-31T09:14:25;17.30;99.90
19252;DHT22;9760;50.944;5.304;2023-07-31T09:16:55;17.40;99.90
19252;DHT22;9760;50.944;5.304;2023-07-31T09:19:26;17.40;99.90
19252;DHT22;9760;50.944;5.304;2023-07-31T09:21:52;17.40;99.90
19252;DHT22;9760;50.944;5.304;2023-07-31T09:24:36;17.40;99.90
19252;DHT22;9760;50.944;5.304;2023-07-31T09:27:02;17.30;99.90
19252;DHT22;9760;50.944;5.304;2023-07-31T09:29:28;17.20;99.90
19252;DHT22;9760;50.944;5.304;2023-07-31T09:31:55;17.20;99.90
19252;DHT22;9760;50.944;5.304;2023-07-31T09:34:29;17.10;99.90
19252;DHT22;9760;50.944;5.304;2023-07-31T09:36:57;17.20;99.90
19252;DHT22;9760;50.944;5.304;2023-07-31T09:39:23;17.20;99.90
19252;DHT22;9760;50.944;5.304;2023-07-31T09:41:55;17.30;99.90
19252;DHT22;9760;50.944;5.304;2023-07-31T09:44:21;17.40;99.90
19252;DHT22;9760;50.944;5.304;2023-07-31T09:46:47;17.40;99.90
19252;DHT22;9760;50.944;5.304;2023-07-31T09:49:14;17.40;99.90
19252;DHT22;9760;50.944;5.304;2023-07-31T09:51:41;17.60;99.90
19252;DHT22;9760;50.944;5.304;2023-07-31T09:54:12;17.80;99.90
19252;DHT22;9760;50.944;5.304;2023-07-31T09:56:48;17.90;99.90
19252;DHT22;9760;50.944;5.304;2023-07-31T09:59:16;17.80;99.90
19252;DHT22;9760;50.944;5.304;2023-07-31T10:01:43;17.90;99.90
19252;DHT22;9760;50.944;5.304;2023-07-31T10:04:10;17.90;99.90
19252;DHT22;9760;50.944;5.304;2023-07-31T10:06:37;17.90;99.90
19252;DHT22;9760;50.944;5.304;2023-07-31T10:09:06;17.90;99.90
19252;DHT22;9760;50.944;5.304;2023-07-31T10:11:40;17.90;99.90
19252;DHT22;9760;50.944;5.304;2023-07-31T10:14:07;17.80;99.90
19252;DHT22;9760;50.944;5.304;2023-07-31T10:16:37;17.90;99.90
19252;DHT22;9760;50.944;5.304;2023-07-31T10:19:03;18.00;99.90
19252;DHT22;9760;50.944;5.304;2023-07-31T10:21:31;18.00;99.90
19252;DHT22;9760;50.944;5.304;2023-07-31T10:24:02;18.00;99.90
19252;DHT22;9760;50.944;5.304;2023-07-31T10:26:29;18.10;99.90
19252;DHT22;9760;50.944;5.304;2023-07-31T10:28:56;18.20;99.90
19252;DHT22;9760;50.944;5.304;2023-07-31T10:31:23;18.30;99.90
19252;DHT22;9760;50.944;5.304;2023-07-31T10:33:51;18.50;99.90
19252;DHT22;9760;50.944;5.304;2023-07-31T10:36:19;18.40;99.90
19252;DHT22;9760;50.944;5.304;2023-07-31T10:38:46;18.40;99.90
19252;DHT22;9760;50.944;5.304;2023-07-31T10:41:14;18.30;99.90
19252;DHT22;9760;50.944;5.304;2023-07-31T10:43:39;18.30;99.90
19252;DHT22;9760;50.944;5.304;2023-07-31T10:46:14;18.40;99.90
19252;DHT22;9760;50.944;5.304;2023-07-31T10:48:40;18.30;99.90
19252;DHT22;9760;50.944;5.304;2023-07-31T10:51:11;18.50;99.90
19252;DHT22;9760;50.944;5.304;2023-07-31T10:53:38;18.60;99.90
19252;DHT22;9760;50.944;5.304;2023-07-31T10:56:08;18.60;99.90
19252;DHT22;9760;50.944;5.304;2023-07-31T10:58:35;18.70;99.90
19252;DHT22;9760;50.944;5.304;2023-07-31T11:01:03;18.70;99.90
19252;DHT22;9760;50.944;5.304;2023-07-31T11:03:46;18.90;99.90
19252;DHT22;9760;50.944;5.304;2023-07-31T11:06:14;18.70;99.90
19252;DHT22;9760;50.944;5.304;2023-07-31T11:08:47;18.60;99.90
19252;DHT22;9760;50.944;5.304;2023-07-31T11:11:15;18.60;99.90
19252;DHT22;9760;50.944;5.304;2023-07-31T11:13:51;18.70;99.90
19252;DHT22;9760;50.944;5.304;2023-07-31T11:16:22;18.90;99.90
19252;DHT22;9760;50.944;5.304;2023-07-31T11:18:48;19.10;99.90
19252;DHT22;9760;50.944;5.304;2023-07-31T11:21:16;19.10;99.90
19252;DHT22;9760;50.944;5.304;2023-07-31T11:23:47;19.10;99.90
19252;DHT22;9760;50.944;5.304;2023-07-31T11:26:14;19.20;99.90
19252;DHT22;9760;50.944;5.304;2023-07-31T11:28:40;19.20;99.90
19252;DHT22;9760;50.944;5.304;2023-07-31T11:31:09;19.40;99.90
19252;DHT22;9760;50.944;5.304;2023-07-31T11:33:35;19.40;99.90
19252;DHT22;9760;50.944;5.304;2023-07-31T11:36:01;19.60;99.90
19252;DHT22;9760;50.944;5.304;2023-07-31T11:38:29;19.90;99.90
19252;DHT22;9760;50.944;5.304;2023-07-31T11:41:00;20.00;99.90
19252;DHT22;9760;50.944;5.304;2023-07-31T11:43:26;20.00;99.90
19252;DHT22;9760;50.944;5.304;2023-07-31T11:45:55;20.10;99.90
19252;DHT22;9760;50.944;5.304;2023-07-31T11:48:27;20.20;99.90
19252;DHT22;9760;50.944;5.304;2023-07-31T11:50:56;20.40;99.90
19252;DHT22;9760;50.944;5.304;2023-07-31T11:53:36;20.50;99.90
19252;DHT22;9760;50.944;5.304;2023-07-31T11:56:04;20.60;99.90
19252;DHT22;9760;50.944;5.304;2023-07-31T11:58:31;20.60;99.90
19252;DHT22;9760;50.944;5.304;2023-07-31T12:00:59;20.60;99.90
19252;DHT22;9760;50.944;5.304;2023-07-31T12:03:27;20.50;99.90
19252;DHT22;9760;50.944;5.304;2023-07-31T12:05:53;20.40;99.90
19252;DHT22;9760;50.944;5.304;2023-07-31T12:08:22;20.20;99.90
19252;DHT22;9760;50.944;5.304;2023-07-31T12:10:50;20.20;99.90
19252;DHT22;9760;50.944;5.304;2023-07-31T12:13:24;20.20;99.90
19252;DHT22;9760;50.944;5.304;2023-07-31T12:15:58;20.30;99.90
19252;DHT22;9760;50.944;5.304;2023-07-31T12:18:25;20.40;99.90
19252;DHT22;9760;50.944;5.304;2023-07-31T12:20:59;20.30;99.90
19252;DHT22;9760;50.944;5.304;2023-07-31T12:23:29;20.10;99.90
19252;DHT22;9760;50.944;5.304;2023-07-31T12:28:48;19.80;99.90
19252;DHT22;9760;50.944;5.304;2023-07-31T12:33:43;20.20;99.90
19252;DHT22;9760;50.944;5.304;2023-07-31T12:36:11;20.30;99.90
19252;DHT22;9760;50.944;5.304;2023-07-31T12:38:37;20.80;99.90
19252;DHT22;9760;50.944;5.304;2023-07-31T12:41:03;21.20;99.90
19252;DHT22;9760;50.944;5.304;2023-07-31T12:43:29;21.60;99.90
19252;DHT22;9760;50.944;5.304;2023-07-31T12:45:55;21.60;99.90
19252;DHT22;9760;50.944;5.304;2023-07-31T12:48:22;21.40;99.90
19252;DHT22;9760;50.944;5.304;2023-07-31T12:50:47;21.00;99.90
19252;DHT22;9760;50.944;5.304;2023-07-31T12:53:14;20.70;99.90
19252;DHT22;9760;50.944;5.304;2023-07-31T12:55:40;20.80;99.90
19252;DHT22;9760;50.944;5.304;2023-07-31T12:58:06;20.80;99.90
19252;DHT22;9760;50.944;5.304;2023-07-31T13:00:31;20.80;99.90
19252;DHT22;9760;50.944;5.304;2023-07-31T13:02:57;20.60;99.90
19252;DHT22;9760;50.944;5.304;2023-07-31T13:05:22;20.50;99.90
19252;DHT22;9760;50.944;5.304;2023-07-31T13:07:48;20.40;99.90
19252;DHT22;9760;50.944;5.304;2023-07-31T13:10:14;20.30;99.90
19252;DHT22;9760;50.944;5.304;2023-07-31T13:12:40;20.30;99.90
19252;DHT22;9760;50.944;5.304;2023-07-31T13:15:06;20.30;99.90
19252;DHT22;9760;50.944;5.304;2023-07-31T13:17:33;20.20;99.90
19252;DHT22;9760;50.944;5.304;2023-07-31T13:19:59;20.20;99.90
19252;DHT22;9760;50.944;5.304;2023-07-31T13:22:25;20.20;99.90
19252;DHT22;9760;50.944;5.304;2023-07-31T13:24:50;20.20;99.90
19252;DHT22;9760;50.944;5.304;2023-07-31T13:27:16;20.10;99.90
19252;DHT22;9760;50.944;5.304;2023-07-31T13:29:45;20.10;99.90
19252;DHT22;9760;50.944;5.304;2023-07-31T13:32:11;20.00;99.90
19252;DHT22;9760;50.944;5.304;2023-07-31T13:34:37;20.00;99.90
19252;DHT22;9760;50.944;5.304;2023-07-31T13:37:03;20.00;99.90
19252;DHT22;9760;50.944;5.304;2023-07-31T13:39:28;20.00;99.90
19252;DHT22;9760;50.944;5.304;2023-07-31T13:41:54;20.00;99.90
19252;DHT22;9760;50.944;5.304;2023-07-31T13:44:20;20.00;99.90
19252;DHT22;9760;50.944;5.304;2023-07-31T13:46:46;20.00;99.90
19252;DHT22;9760;50.944;5.304;2023-07-31T13:49:12;20.00;99.90
19252;DHT22;9760;50.944;5.304;2023-07-31T13:51:37;20.00;99.90
19252;DHT22;9760;50.944;5.304;2023-07-31T13:54:05;20.10;99.90
19252;DHT22;9760;50.944;5.304;2023-07-31T13:56:32;20.20;99.90
19252;DHT22;9760;50.944;5.304;2023-07-31T13:58:57;20.10;99.90
19252;DHT22;9760;50.944;5.304;2023-07-31T14:01:23;20.10;99.90
19252;DHT22;9760;50.944;5.304;2023-07-31T14:03:49;20.10;99.90
19252;DHT22;9760;50.944;5.304;2023-07-31T14:06:15;20.10;99.90
19252;DHT22;9760;50.944;5.304;2023-07-31T14:08:41;20.00;99.90
19252;DHT22;9760;50.944;5.304;2023-07-31T14:11:06;19.90;99.90
19252;DHT22;9760;50.944;5.304;2023-07-31T14:13:32;19.80;99.90
19252;DHT22;9760;50.944;5.304;2023-07-31T14:15:57;19.80;99.90
19252;DHT22;9760;50.944;5.304;2023-07-31T14:18:23;19.70;99.90
19252;DHT22;9760;50.944;5.304;2023-07-31T14:20:49;19.70;99.90
19252;DHT22;9760;50.944;5.304;2023-07-31T14:23:14;19.70;99.90
19252;DHT22;9760;50.944;5.304;2023-07-31T14:25:41;19.60;99.90
19252;DHT22;9760;50.944;5.304;2023-07-31T14:28:07;19.50;99.90
19252;DHT22;9760;50.944;5.304;2023-07-31T14:30:32;19.30;99.90
19252;DHT22;9760;50.944;5.304;2023-07-31T14:32:58;18.90;99.90
19252;DHT22;9760;50.944;5.304;2023-07-31T14:35:26;18.70;99.90
19252;DHT22;9760;50.944;5.304;2023-07-31T14:37:51;18.50;99.90
19252;DHT22;9760;50.944;5.304;2023-07-31T14:40:17;18.40;99.90
19252;DHT22;9760;50.944;5.304;2023-07-31T14:42:43;18.40;99.90
19252;DHT22;9760;50.944;5.304;2023-07-31T14:45:09;18.30;99.90
19252;DHT22;9760;50.944;5.304;2023-07-31T14:47:36;18.30;99.90
19252;DHT22;9760;50.944;5.304;2023-07-31T14:50:02;18.30;99.90
19252;DHT22;9760;50.944;5.304;2023-07-31T14:52:28;18.20;99.90
19252;DHT22;9760;50.944;5.304;2023-07-31T14:54:54;18.20;99.90
19252;DHT22;9760;50.944;5.304;2023-07-31T14:57:20;18.20;99.90
19252;DHT22;9760;50.944;5.304;2023-07-31T14:59:46;18.30;99.90
19252;DHT22;9760;50.944;5.304;2023-07-31T15:02:12;18.20;99.90
19252;DHT22;9760;50.944;5.304;2023-07-31T15:04:38;18.20;99.90
19252;DHT22;9760;50.944;5.304;2023-07-31T15:07:04;18.10;99.90
19252;DHT22;9760;50.944;5.304;2023-07-31T15:09:30;18.00;99.90
19252;DHT22;9760;50.944;5.304;2023-07-31T15:11:56;18.00;99.90
19252;DHT22;9760;50.944;5.304;2023-07-31T15:14:22;18.00;99.90
19252;DHT22;9760;50.944;5.304;2023-07-31T15:16:48;17.90;99.90
19252;DHT22;9760;50.944;5.304;2023-07-31T15:19:14;17.90;99.90
19252;DHT22;9760;50.944;5.304;2023-07-31T15:21:40;17.90;99.90
19252;DHT22;9760;50.944;5.304;2023-07-31T15:24:06;17.90;99.90
19252;DHT22;9760;50.944;5.304;2023-07-31T15:26:32;17.90;99.90
19252;DHT22;9760;50.944;5.304;2023-07-31T15:29:03;17.90;99.90
19252;DHT22;9760;50.944;5.304;2023-07-31T15:31:31;17.80;99.90
19252;DHT22;9760;50.944;5.304;2023-07-31T15:33:57;17.90;99.90
19252;DHT22;9760;50.944;5.304;2023-07-31T15:36:22;17.90;99.90
19252;DHT22;9760;50.944;5.304;2023-07-31T15:38:48;17.80;99.90
19252;DHT22;9760;50.944;5.304;2023-07-31T15:41:19;17.90;99.90
19252;DHT22;9760;50.944;5.304;2023-07-31T15:43:45;17.90;99.90
19252;DHT22;9760;50.944;5.304;2023-07-31T15:46:11;17.90;99.90
19252;DHT22;9760;50.944;5.304;2023-07-31T15:48:37;17.90;99.90
19252;DHT22;9760;50.944;5.304;2023-07-31T15:51:03;17.90;99.90
19252;DHT22;9760;50.944;5.304;2023-07-31T15:53:30;17.80;99.90